createdAt,value
2022-12-04T00:02:02.561Z,90.21
2022-12-04T00:04:33.126Z,90.10
2022-12-04T00:07:03.584Z,90.03
2022-12-04T00:09:34.215Z,89.99
2022-12-04T00:12:04.808Z,90.12
2022-12-04T00:14:49.086Z,90.33
2022-12-04T00:17:28.954Z,90.23
2022-12-04T00:20:05.206Z,90.30
2022-12-04T00:22:35.850Z,90.57
2022-12-04T00:25:06.736Z,90.85
2022-12-04T00:27:37.241Z,90.68
2022-12-04T00:30:09.888Z,90.47
2022-12-04T00:32:40.336Z,90.80
2022-12-04T00:35:11.200Z,90.96
2022-12-04T00:37:41.561Z,91.14
2022-12-04T00:40:13.689Z,91.11
2022-12-04T00:42:44.118Z,91.26
2022-12-04T00:45:14.838Z,91.58
2022-12-04T00:47:45.621Z,91.38
2022-12-04T00:50:16.241Z,91.57
2022-12-04T00:52:47.079Z,91.26
2022-12-04T00:55:17.888Z,91.32
2022-12-04T00:57:48.357Z,91.38
2022-12-04T01:00:19.768Z,91.62
2022-12-04T01:02:50.263Z,91.81
2022-12-04T01:05:23.953Z,91.90
2022-12-04T01:07:54.438Z,91.84
2022-12-04T01:10:25.480Z,91.75
2022-12-04T01:12:56.408Z,92.00
2022-12-04T01:15:26.844Z,92.05
2022-12-04T01:17:57.771Z,92.04
2022-12-04T01:20:28.370Z,91.96
2022-12-04T01:22:58.730Z,92.09
2022-12-04T01:25:29.346Z,92.34
2022-12-04T01:27:59.783Z,92.55
2022-12-04T01:30:30.799Z,92.48
2022-12-04T01:33:01.175Z,92.33
2022-12-04T01:35:31.605Z,92.71
2022-12-04T01:38:02.039Z,92.44
2022-12-04T01:40:33.001Z,92.43
2022-12-04T01:43:04.113Z,92.53
2022-12-04T01:45:43.337Z,92.44
2022-12-04T01:48:20.027Z,92.43
2022-12-04T01:50:54.527Z,92.48
2022-12-04T01:53:25.475Z,92.50
2022-12-04T01:55:56.736Z,92.43
2022-12-04T01:58:32.136Z,92.47
2022-12-04T02:01:08.726Z,92.67
2022-12-04T02:03:40.735Z,92.59
2022-12-04T02:06:11.705Z,92.66
2022-12-04T02:08:42.153Z,92.79
2022-12-04T02:11:28.104Z,92.83
2022-12-04T02:14:08.806Z,92.91
2022-12-04T02:16:47.534Z,92.91
2022-12-04T02:19:34.918Z,93.12
2022-12-04T02:22:15.928Z,93.22
2022-12-04T02:24:54.457Z,93.22
2022-12-04T02:27:35.256Z,93.36
2022-12-04T02:30:10.207Z,93.09
2022-12-04T02:32:47.296Z,93.24
2022-12-04T02:35:26.368Z,93.31
2022-12-04T02:38:05.005Z,93.17
2022-12-04T02:40:45.350Z,93.17
2022-12-04T02:43:19.870Z,93.34
2022-12-04T02:45:58.230Z,93.60
2022-12-04T02:48:32.270Z,93.75
2022-12-04T02:51:05.504Z,93.78
2022-12-04T02:53:39.171Z,94.00
2022-12-04T02:56:14.225Z,93.95
2022-12-04T02:58:50.763Z,93.69
2022-12-04T03:01:26.254Z,93.64
2022-12-04T03:04:00.751Z,93.67
2022-12-04T03:06:36.209Z,93.93
2022-12-04T03:09:11.746Z,93.75
2022-12-04T03:11:46.466Z,93.89
2022-12-04T03:14:22.637Z,93.80
2022-12-04T03:16:59.784Z,93.88
2022-12-04T03:19:36.183Z,93.90
2022-12-04T03:22:14.663Z,93.77
2022-12-04T03:24:54.030Z,93.62
2022-12-04T03:27:32.652Z,93.61
2022-12-04T03:30:06.654Z,93.65
2022-12-04T03:32:45.538Z,93.48
2022-12-04T03:35:21.059Z,93.73
2022-12-04T03:38:00.994Z,93.74
2022-12-04T03:40:38.772Z,93.80
2022-12-04T03:43:14.339Z,93.65
2022-12-04T03:45:49.686Z,93.74
2022-12-04T03:48:25.745Z,93.79
2022-12-04T03:51:03.832Z,93.92
2022-12-04T03:53:34.759Z,93.86
2022-12-04T03:56:11.472Z,93.84
2022-12-04T03:58:47.001Z,93.69
2022-12-04T04:01:21.321Z,93.66
2022-12-04T04:03:55.097Z,93.82
2022-12-04T04:06:30.264Z,93.70
2022-12-04T04:09:05.909Z,93.69
2022-12-04T04:11:41.454Z,93.49
2022-12-04T04:14:34.283Z,93.42
2022-12-04T04:17:24.291Z,93.52
2022-12-04T04:20:23.374Z,93.35
2022-12-04T04:23:14.383Z,93.26
2022-12-04T04:25:47.785Z,93.32
2022-12-04T04:28:33.435Z,93.32
2022-12-04T04:31:10.965Z,93.14
2022-12-04T04:33:54.298Z,93.07
2022-12-04T04:36:33.301Z,93.13
2022-12-04T04:39:12.762Z,92.99
2022-12-04T04:41:50.466Z,92.89
2022-12-04T04:44:31.185Z,92.90
2022-12-04T04:47:07.301Z,93.10
2022-12-04T04:49:40.590Z,92.84
2022-12-04T04:52:11.664Z,92.78
2022-12-04T04:54:42.772Z,92.84
2022-12-04T04:57:13.411Z,92.93
2022-12-04T04:59:44.206Z,92.96
2022-12-04T05:02:14.690Z,92.91
2022-12-04T05:04:45.576Z,92.76
2022-12-04T05:07:16.567Z,92.66
2022-12-04T05:09:47.254Z,92.78
2022-12-04T05:12:17.918Z,92.53
2022-12-04T05:14:48.915Z,92.67
2022-12-04T05:17:20.125Z,92.52
2022-12-04T05:19:57.879Z,92.52
2022-12-04T05:22:31.523Z,92.43
2022-12-04T05:25:03.057Z,92.36
2022-12-04T05:27:34.702Z,92.48
2022-12-04T05:30:06.131Z,92.33
2022-12-04T05:32:36.602Z,92.31
2022-12-04T05:35:11.294Z,92.07
2022-12-04T05:37:42.864Z,92.06
2022-12-04T05:40:14.299Z,92.12
2022-12-04T05:42:45.013Z,92.14
2022-12-04T05:45:19.108Z,92.14
2022-12-04T05:47:49.883Z,92.10
2022-12-04T05:50:23.348Z,92.27
2022-12-04T05:52:53.765Z,92.17
2022-12-04T05:55:24.455Z,92.15
2022-12-04T05:57:54.842Z,92.06
2022-12-04T06:00:25.362Z,92.05
2022-12-04T06:02:56.534Z,91.99
2022-12-04T06:05:27.276Z,92.00
2022-12-04T06:07:58.283Z,92.05
2022-12-04T06:10:30.081Z,92.04
2022-12-04T06:13:00.812Z,92.06
2022-12-04T06:15:32.014Z,91.97
2022-12-04T06:18:02.418Z,92.23
2022-12-04T06:20:33.818Z,91.87
2022-12-04T06:23:04.785Z,91.84
2022-12-04T06:25:35.500Z,91.76
2022-12-04T06:28:06.435Z,91.61
2022-12-04T06:30:37.640Z,91.73
2022-12-04T06:33:08.118Z,91.68
2022-12-04T06:35:38.602Z,91.68
2022-12-04T06:38:09.262Z,91.63
2022-12-04T06:40:42.080Z,91.73
2022-12-04T06:43:13.090Z,91.51
2022-12-04T06:45:43.795Z,91.73
2022-12-04T06:48:14.159Z,91.72
2022-12-04T06:50:45.130Z,91.54
2022-12-04T06:53:15.468Z,91.40
2022-12-04T06:55:51.051Z,91.57
2022-12-04T06:58:21.597Z,91.70
2022-12-04T07:00:52.097Z,91.98
2022-12-04T07:03:23.191Z,91.76
2022-12-04T07:05:53.660Z,91.90
2022-12-04T07:08:24.670Z,91.90
2022-12-04T07:10:59.142Z,92.02
2022-12-04T07:13:29.839Z,91.98
2022-12-04T07:16:02.973Z,91.98
2022-12-04T07:18:35.274Z,92.02
2022-12-04T07:21:10.056Z,92.17
2022-12-04T07:23:40.452Z,92.09
2022-12-04T07:26:12.262Z,92.03
2022-12-04T07:28:45.129Z,92.14
2022-12-04T07:31:17.470Z,92.17
2022-12-04T07:33:48.979Z,92.12
2022-12-04T07:36:21.742Z,92.15
2022-12-04T07:38:53.010Z,92.21
2022-12-04T07:41:23.328Z,92.39
2022-12-04T07:43:54.874Z,92.30
2022-12-04T07:46:28.262Z,92.14
2022-12-04T07:49:00.183Z,92.34
2022-12-04T07:51:31.282Z,92.39
2022-12-04T07:54:04.134Z,92.33
2022-12-04T07:56:35.141Z,92.42
2022-12-04T07:59:05.556Z,92.51
2022-12-04T08:01:36.140Z,92.71
2022-12-04T08:04:07.292Z,92.60
2022-12-04T08:06:38.461Z,92.53
2022-12-04T08:09:10.457Z,92.57
2022-12-04T08:11:41.760Z,92.54
2022-12-04T08:14:14.862Z,92.67
2022-12-04T08:16:51.092Z,92.61
2022-12-04T08:19:23.140Z,92.84
2022-12-04T08:21:54.800Z,92.53
2022-12-04T08:24:25.799Z,92.64
2022-12-04T08:26:57.091Z,92.69
2022-12-04T08:29:27.875Z,92.65
2022-12-04T08:31:58.564Z,92.70
2022-12-04T08:34:28.922Z,92.86
2022-12-04T08:36:59.328Z,92.99
2022-12-04T08:39:29.840Z,92.78
2022-12-04T08:42:00.212Z,92.77
2022-12-04T08:44:31.254Z,92.73
2022-12-04T08:47:01.610Z,92.75
2022-12-04T08:49:32.151Z,92.68
2022-12-04T08:52:02.922Z,92.95
2022-12-04T08:54:36.240Z,92.77
2022-12-04T08:57:07.361Z,92.94
2022-12-04T08:59:38.149Z,93.09
2022-12-04T09:02:09.619Z,93.01
2022-12-04T09:04:40.099Z,92.92
2022-12-04T09:07:11.395Z,92.93
2022-12-04T09:09:47.900Z,93.05
2022-12-04T09:12:19.222Z,93.29
2022-12-04T09:14:49.693Z,93.25
2022-12-04T09:17:20.414Z,93.23
2022-12-04T09:19:51.220Z,93.28
2022-12-04T09:22:22.181Z,93.32
2022-12-04T09:24:52.838Z,93.13
2022-12-04T09:27:23.560Z,93.44
2022-12-04T09:29:55.034Z,93.60
2022-12-04T09:32:26.498Z,93.84
2022-12-04T09:34:56.986Z,93.85
2022-12-04T09:37:27.576Z,93.82
2022-12-04T09:39:58.275Z,93.72
2022-12-04T09:42:40.996Z,93.64
2022-12-04T09:45:16.729Z,93.71
2022-12-04T09:47:51.410Z,93.78
2022-12-04T09:50:26.384Z,93.92
2022-12-04T09:53:00.686Z,94.11
2022-12-04T09:55:40.631Z,93.99
2022-12-04T09:58:18.705Z,93.95
2022-12-04T10:00:50.810Z,93.95
2022-12-04T10:03:23.241Z,93.99
2022-12-04T10:06:03.212Z,94.10
2022-12-04T10:08:37.670Z,94.04
2022-12-04T10:11:15.027Z,94.14
2022-12-04T10:14:00.673Z,93.93
2022-12-04T10:16:39.870Z,94.03
2022-12-04T10:19:17.732Z,94.05
2022-12-04T10:22:01.396Z,94.21
2022-12-04T10:24:41.500Z,94.18
2022-12-04T10:27:17.779Z,94.20
2022-12-04T10:29:51.833Z,93.88
2022-12-04T10:32:25.203Z,94.01
2022-12-04T10:34:59.665Z,94.03
2022-12-04T10:37:30.990Z,94.08
2022-12-04T10:40:13.400Z,94.23
2022-12-04T10:42:52.554Z,93.99
2022-12-04T10:45:24.100Z,93.96
2022-12-04T10:47:55.006Z,94.09
2022-12-04T10:50:26.715Z,94.04
2022-12-04T10:52:57.642Z,94.07
2022-12-04T10:55:34.059Z,94.27
2022-12-04T10:58:04.580Z,94.37
2022-12-04T11:00:36.578Z,94.02
2022-12-04T11:03:23.536Z,93.88
2022-12-04T11:05:59.865Z,94.03
2022-12-04T11:08:36.298Z,94.14
2022-12-04T11:11:11.275Z,93.86
2022-12-04T11:13:42.564Z,93.88
2022-12-04T11:16:34.292Z,93.94
2022-12-04T11:19:05.105Z,94.13
2022-12-04T11:21:36.266Z,94.06
2022-12-04T11:24:07.465Z,93.87
2022-12-04T11:26:43.522Z,94.10
2022-12-04T11:29:18.756Z,94.05
2022-12-04T11:31:53.243Z,94.20
2022-12-04T11:34:27.105Z,94.21
2022-12-04T11:36:59.091Z,94.15
2022-12-04T11:39:36.267Z,94.18
2022-12-04T11:42:17.840Z,94.32
2022-12-04T11:44:55.523Z,94.44
2022-12-04T11:47:31.507Z,94.46
2022-12-04T11:50:14.715Z,94.40
2022-12-04T11:53:07.343Z,94.49
2022-12-04T11:55:47.300Z,94.53
2022-12-04T11:58:33.899Z,94.50
2022-12-04T12:01:21.239Z,94.58
2022-12-04T12:04:05.140Z,94.88
2022-12-04T12:06:38.628Z,94.86
2022-12-04T12:09:29.009Z,94.70
2022-12-04T12:12:03.800Z,94.74
2022-12-04T12:14:42.088Z,94.87
2022-12-04T12:17:23.452Z,94.92
2022-12-04T12:20:14.917Z,94.90
2022-12-04T12:23:17.673Z,94.93
2022-12-04T12:25:57.226Z,95.12
2022-12-04T12:28:49.265Z,95.28
2022-12-04T12:31:38.602Z,95.18
2022-12-04T12:34:12.870Z,95.23
2022-12-04T12:36:48.286Z,95.29
2022-12-04T12:39:24.339Z,95.50
2022-12-04T12:41:58.253Z,95.21
2022-12-04T12:44:35.656Z,95.40
2022-12-04T12:47:10.284Z,95.20
2022-12-04T12:49:49.676Z,95.06
2022-12-04T12:52:31.369Z,95.18
2022-12-04T12:55:14.327Z,95.34
2022-12-04T12:57:47.636Z,95.29
2022-12-04T13:00:21.461Z,95.28
2022-12-04T13:02:59.482Z,95.51
2022-12-04T13:05:36.000Z,95.36
2022-12-04T13:08:16.855Z,95.44
2022-12-04T13:10:51.125Z,95.54
2022-12-04T13:13:26.574Z,95.41
2022-12-04T13:16:02.726Z,95.65
2022-12-04T13:18:39.841Z,95.48
2022-12-04T13:21:19.903Z,95.36
2022-12-04T13:24:00.993Z,95.55
2022-12-04T13:26:49.507Z,95.53
2022-12-04T13:29:37.524Z,95.41
2022-12-04T13:32:29.322Z,95.38
2022-12-04T13:35:09.322Z,95.30
2022-12-04T13:37:58.532Z,95.46
2022-12-04T13:40:36.998Z,95.81
2022-12-04T13:43:24.013Z,95.76
2022-12-04T13:45:56.675Z,95.77
2022-12-04T13:48:32.893Z,95.91
2022-12-04T13:51:23.568Z,95.86
2022-12-04T13:54:21.544Z,95.97
2022-12-04T13:56:55.368Z,95.91
2022-12-04T13:59:37.325Z,96.12
2022-12-04T14:02:25.568Z,96.02
2022-12-04T14:05:00.392Z,96.07
2022-12-04T14:07:34.389Z,95.93
2022-12-04T14:10:09.640Z,96.03
2022-12-04T14:12:43.826Z,96.11
2022-12-04T14:15:24.325Z,96.21
2022-12-04T14:18:03.517Z,96.04
2022-12-04T14:20:35.347Z,96.06
2022-12-04T14:23:26.486Z,96.04
2022-12-04T14:25:57.908Z,96.12
2022-12-04T14:28:42.590Z,96.01
2022-12-04T14:31:30.385Z,95.88
2022-12-04T14:34:04.116Z,95.93
2022-12-04T14:36:41.956Z,95.98
2022-12-04T14:39:30.737Z,95.86
2022-12-04T14:42:13.938Z,96.21
2022-12-04T14:44:47.259Z,96.23
2022-12-04T14:47:42.540Z,96.48
2022-12-04T14:50:25.579Z,96.31
2022-12-04T14:53:10.545Z,96.31
2022-12-04T14:55:53.009Z,96.26
2022-12-04T14:58:34.769Z,96.20
2022-12-04T15:01:17.565Z,96.21
2022-12-04T15:03:50.835Z,96.11
2022-12-04T15:06:29.296Z,96.11
2022-12-04T15:09:17.346Z,96.16
2022-12-04T15:12:11.126Z,96.05
2022-12-04T15:14:47.341Z,96.08
2022-12-04T15:17:19.553Z,96.04
2022-12-04T15:19:50.355Z,96.07
2022-12-04T15:22:25.307Z,96.43
2022-12-04T15:24:56.752Z,96.26
2022-12-04T15:27:32.353Z,96.29
2022-12-04T15:30:04.935Z,96.45
2022-12-04T15:32:35.934Z,96.31
2022-12-04T15:35:10.189Z,96.48
2022-12-04T15:37:41.671Z,96.66
2022-12-04T15:40:23.871Z,96.47
2022-12-04T15:42:55.013Z,96.58
2022-12-04T15:45:34.896Z,96.74
2022-12-04T15:48:05.638Z,96.82
2022-12-04T15:50:36.330Z,96.62
2022-12-04T15:53:23.973Z,96.73
2022-12-04T15:55:58.008Z,96.62
2022-12-04T15:58:30.946Z,96.57
2022-12-04T16:01:03.304Z,96.64
2022-12-04T16:03:37.431Z,96.60
2022-12-04T16:06:16.278Z,96.57
2022-12-04T16:08:48.792Z,96.60
2022-12-04T16:11:35.072Z,96.45
2022-12-04T16:14:15.087Z,96.51
2022-12-04T16:16:47.452Z,96.34
2022-12-04T16:19:29.279Z,96.50
2022-12-04T16:21:59.992Z,96.55
2022-12-04T16:24:30.705Z,96.67
2022-12-04T16:27:03.449Z,96.64
2022-12-04T16:29:33.964Z,96.78
2022-12-04T16:32:05.243Z,96.91
2022-12-04T16:34:35.742Z,96.81
2022-12-04T16:37:13.915Z,96.78
2022-12-04T16:39:45.256Z,96.77
2022-12-04T16:42:19.969Z,96.95
2022-12-04T16:44:51.566Z,96.91
2022-12-04T16:47:22.379Z,96.91
2022-12-04T16:49:54.327Z,96.92
2022-12-04T16:52:25.062Z,97.02
2022-12-04T16:54:59.404Z,96.99
2022-12-04T16:57:32.681Z,96.96
2022-12-04T17:00:03.923Z,96.90
2022-12-04T17:02:34.341Z,96.87
2022-12-04T17:05:05.359Z,97.01
2022-12-04T17:07:35.865Z,96.85
2022-12-04T17:10:07.933Z,96.76
2022-12-04T17:12:38.390Z,97.03
2022-12-04T17:15:10.837Z,96.89
2022-12-04T17:17:41.800Z,96.85
2022-12-04T17:20:15.578Z,96.99
2022-12-04T17:22:46.289Z,97.05
2022-12-04T17:25:17.774Z,97.13
2022-12-04T17:27:48.470Z,97.12
2022-12-04T17:30:19.343Z,96.75
2022-12-04T17:32:49.812Z,97.05
2022-12-04T17:35:20.874Z,97.02
2022-12-04T17:37:51.342Z,96.77
2022-12-04T17:40:22.521Z,96.80
2022-12-04T17:42:53.277Z,96.99
2022-12-04T17:45:23.671Z,97.00
2022-12-04T17:47:54.114Z,97.10
2022-12-04T17:50:24.652Z,97.10
2022-12-04T17:52:56.127Z,97.01
2022-12-04T17:55:27.068Z,96.96
2022-12-04T17:57:57.580Z,97.00
2022-12-04T18:00:28.435Z,97.10
2022-12-04T18:02:59.344Z,97.00
2022-12-04T18:05:31.528Z,97.05
2022-12-04T18:08:01.982Z,96.84
2022-12-04T18:10:32.429Z,96.89
2022-12-04T18:13:02.912Z,96.85
2022-12-04T18:15:35.388Z,96.80
2022-12-04T18:18:06.038Z,96.80
2022-12-04T18:20:37.252Z,96.96
2022-12-04T18:23:07.609Z,97.19
2022-12-04T18:25:38.077Z,97.24
2022-12-04T18:28:08.527Z,97.09
2022-12-04T18:30:39.792Z,97.09
2022-12-04T18:33:14.809Z,96.94
2022-12-04T18:35:55.895Z,96.77
2022-12-04T18:38:28.104Z,97.04
2022-12-04T18:41:02.013Z,96.99
2022-12-04T18:43:35.539Z,97.25
2022-12-04T18:46:09.451Z,97.00
2022-12-04T18:48:40.804Z,97.03
2022-12-04T18:51:20.848Z,97.08
2022-12-04T18:53:55.383Z,97.09
2022-12-04T18:56:26.712Z,97.22
2022-12-04T18:59:01.156Z,97.20
2022-12-04T19:01:31.873Z,97.18
2022-12-04T19:04:04.737Z,97.08
2022-12-04T19:06:36.792Z,97.01
2022-12-04T19:09:09.731Z,97.13
2022-12-04T19:11:41.499Z,96.92
2022-12-04T19:14:22.326Z,96.76
2022-12-04T19:16:53.589Z,96.78
2022-12-04T19:19:28.707Z,96.65
2022-12-04T19:22:02.764Z,96.54
2022-12-04T19:24:33.496Z,96.85
2022-12-04T19:27:10.966Z,96.66
2022-12-04T19:29:43.398Z,96.81
2022-12-04T19:32:15.218Z,96.87
2022-12-04T19:34:45.688Z,96.89
2022-12-04T19:37:16.289Z,96.50
2022-12-04T19:39:46.914Z,96.78
2022-12-04T19:42:17.214Z,96.86
2022-12-04T19:44:49.125Z,96.78
2022-12-04T19:47:20.655Z,96.75
2022-12-04T19:49:51.305Z,96.80
2022-12-04T19:52:22.017Z,96.69
2022-12-04T19:54:52.723Z,96.48
2022-12-04T19:57:23.758Z,96.56
2022-12-04T19:59:55.274Z,96.57
2022-12-04T20:02:26.318Z,96.67
2022-12-04T20:04:57.082Z,96.54
2022-12-04T20:07:28.409Z,96.66
2022-12-04T20:09:59.561Z,96.82
2022-12-04T20:12:30.561Z,96.90
2022-12-04T20:15:01.329Z,97.03
2022-12-04T20:17:32.245Z,96.96
2022-12-04T20:20:02.642Z,96.82
2022-12-04T20:22:34.904Z,96.78
2022-12-04T20:25:06.086Z,97.02
2022-12-04T20:27:36.527Z,97.31
2022-12-04T20:30:09.107Z,97.32
2022-12-04T20:32:39.589Z,97.18
2022-12-04T20:35:11.316Z,97.24
2022-12-04T20:37:42.056Z,97.15
2022-12-04T20:40:14.392Z,97.23
2022-12-04T20:42:44.818Z,97.08
2022-12-04T20:45:15.215Z,97.31
2022-12-04T20:47:45.939Z,97.32
2022-12-04T20:50:16.419Z,97.34
2022-12-04T20:52:47.110Z,97.28
2022-12-04T20:55:17.606Z,97.37
2022-12-04T20:57:48.281Z,97.02
2022-12-04T21:00:20.402Z,97.01
2022-12-04T21:02:50.932Z,97.21
2022-12-04T21:05:21.411Z,97.28
2022-12-04T21:07:52.586Z,97.24
2022-12-04T21:10:22.989Z,97.07
2022-12-04T21:13:11.923Z,97.13
2022-12-04T21:16:00.539Z,97.34
2022-12-04T21:18:30.932Z,97.40
2022-12-04T21:21:02.409Z,97.35
2022-12-04T21:23:33.156Z,97.41
2022-12-04T21:26:03.687Z,97.57
2022-12-04T21:28:34.564Z,97.49
2022-12-04T21:31:07.284Z,97.61
2022-12-04T21:33:37.977Z,97.45
2022-12-04T21:36:11.241Z,97.38
2022-12-04T21:38:42.605Z,97.36
2022-12-04T21:41:35.065Z,97.41
2022-12-04T21:44:09.753Z,97.45
2022-12-04T21:46:41.393Z,97.19
2022-12-04T21:49:12.354Z,97.34
2022-12-04T21:51:59.394Z,97.48
2022-12-04T21:54:30.397Z,97.51
2022-12-04T21:57:01.273Z,97.59
2022-12-04T21:59:32.808Z,97.60
2022-12-04T22:02:04.189Z,97.55
2022-12-04T22:04:35.031Z,97.27
2022-12-04T22:07:05.932Z,97.40
2022-12-04T22:09:37.588Z,97.59
2022-12-04T22:12:26.836Z,97.88
2022-12-04T22:15:00.481Z,97.59
2022-12-04T22:17:33.035Z,97.52
2022-12-04T22:20:04.082Z,97.64
2022-12-04T22:22:34.625Z,97.45
2022-12-04T22:25:05.962Z,97.46
2022-12-04T22:27:36.368Z,97.49
2022-12-04T22:30:09.418Z,97.54
2022-12-04T22:32:40.445Z,97.58
2022-12-04T22:35:11.910Z,97.44
2022-12-04T22:37:44.741Z,97.44
2022-12-04T22:40:16.720Z,97.49
2022-12-04T22:42:47.106Z,97.66
2022-12-04T22:45:18.000Z,97.52
2022-12-04T22:47:48.488Z,97.43
2022-12-04T22:50:18.727Z,97.48
2022-12-04T22:52:49.106Z,97.60
2022-12-04T22:55:19.874Z,97.41
2022-12-04T22:57:51.032Z,97.50
2022-12-04T23:00:22.110Z,97.39
2022-12-04T23:02:54.309Z,97.48
2022-12-04T23:05:50.178Z,97.18
2022-12-04T23:08:37.457Z,97.70
2022-12-04T23:11:21.911Z,97.60
2022-12-04T23:14:07.308Z,97.48
2022-12-04T23:16:45.502Z,97.37
2022-12-04T23:19:22.180Z,97.44
2022-12-04T23:21:57.614Z,97.54
2022-12-04T23:24:39.480Z,97.60
2022-12-04T23:27:15.655Z,97.62
2022-12-04T23:29:59.999Z,97.41
2022-12-04T23:32:32.275Z,97.62
2022-12-04T23:35:07.723Z,97.51
2022-12-04T23:37:39.311Z,97.42
2022-12-04T23:40:16.855Z,97.57
2022-12-04T23:42:49.536Z,97.55
2022-12-04T23:45:23.246Z,97.39
2022-12-04T23:48:03.816Z,97.41
2022-12-04T23:50:34.896Z,97.37
2022-12-04T23:53:06.059Z,97.33
2022-12-04T23:55:36.532Z,97.22
2022-12-04T23:58:06.867Z,97.30
